Latest Weather Observations for Norah Head

IDN60801

Issued at 12:42 pm EDT Wednesday 16 January 2019 (issued every 10 minutes, with the page automatically refreshed every 10 minutes)

About weather observations | Map of weather stations | Latest weather observations for NSW | Other Formats
Station Details ID: 061366 Name: NORAH HEAD AWS Lat: -33.28 Lon: 151.58 Height: 18.8 m
Data from the previous 72 hours. | See also: Recent months at Norah Head
Date/Time
EDT
Temp
°C
App
Temp
°C
Dew
Point
°C
Rel
Hum
%
Delta-T
°C
Wind Press
QNH
hPa
Press
MSL
hPa
Rain since
9am
mm
Dir  Spd
km/h
Gust
km/h
Spd
kts
Gust
kts
16/12:30pm 25.9 29.1 22.4 81 2.4 E 9 11 5 6 1010.4 1010.3 0.0
16/12:00pm 26.0 29.2 22.3 80 2.5 E 9 11 5 6 1010.5 1010.4 0.0
16/11:30am 25.9 29.5 22.4 81 2.4 E 7 9 4 5 1010.4 1010.3 0.0
16/11:00am 25.6 29.1 21.9 80 2.5 E 6 7 3 4 1010.4 1010.3 0.0
16/10:30am 25.4 29.0 22.1 82 2.2 E 6 7 3 4 1010.4 1010.3 0.0
16/10:00am 25.6 29.7 22.3 82 2.2 ENE 4 6 2 3 1010.4 1010.3 0.0
16/09:30am 25.9 29.6 22.6 82 2.2 ENE 7 7 4 4 1010.4 1010.3 0.0
16/09:00am 24.3 27.5 21.2 83 2.0 E 6 6 3 3 1010.5 1010.4 0.0
16/08:30am 24.8 29.3 22.9 89 1.3 NE 4 6 2 3 1010.2 1010.1 0.0
16/08:00am 23.7 28.6 22.3 92 0.9 CALM 0 6 0 3 1009.9 1009.8 0.0
16/07:30am 22.9 26.7 22.4 97 0.3 N 6 9 3 5 1009.6 1009.5 0.0
16/07:00am 21.9 24.9 21.9 100 0.0 NNW 9 13 5 7 1009.1 1009.1 0.0
16/06:30am 21.6 24.0 21.6 100 0.0 N 11 13 6 7 1008.5 1008.5 0.0
16/06:00am 21.4 23.7 21.4 100 0.0 N 11 13 6 7 1008.7 1008.7 0.0
16/05:30am 21.5 23.9 21.5 100 0.0 N 11 15 6 8 1009.0 1009.0 0.0
16/05:00am 21.5 22.2 21.5 100 0.0 NNE 20 24 11 13 1008.0 1008.0 0.0
16/04:30am 21.6 21.9 21.6 100 0.0 NNE 22 26 12 14 1007.9 1007.9 0.0
16/04:00am 21.7 21.7 21.7 100 0.0 NNE 24 28 13 15 1008.0 1008.0 0.0
16/03:30am 21.7 22.1 21.7 100 0.0 NE 22 26 12 14 1008.1 1008.1 0.0
16/03:00am 21.7 23.0 21.7 100 0.0 NE 17 19 9 10 1008.5 1008.5 0.0
16/02:30am 21.8 23.6 21.8 100 0.0 NNE 15 17 8 9 1008.8 1008.8 0.0
16/02:00am 21.9 23.3 21.9 100 0.0 NE 17 20 9 11 1008.9 1008.9 0.0
16/01:30am 21.9 23.7 21.9 100 0.0 NNE 15 17 8 9 1009.2 1009.2 0.0
16/01:00am 22.1 23.3 22.1 100 0.0 NNE 19 22 10 12 1009.4 1009.3 0.0
16/12:30am 22.1 23.7 22.1 100 0.0 NE 17 22 9 12 1009.8 1009.7 0.0
16/12:00am 22.2 23.8 22.2 100 0.0 NNE 17 19 9 10 1009.9 1009.8 0.0
 
Date/Time
EDT
Temp
°C
App
Temp
°C
Dew
Point
°C
Rel
Hum
%
Delta-T
°C
Wind Press
QNH
hPa
Press
MSL
hPa
Rain since
9am
mm
Dir  Spd
km/h
Gust
km/h
Spd
kts
Gust
kts
15/11:30pm 22.3 22.9 22.1 99 0.1 NNE 22 24 12 13 1009.6 1009.5 0.0
15/11:00pm 22.4 22.2 22.1 98 0.2 NNE 26 30 14 16 1009.8 1009.7 0.0
15/10:30pm 22.5 22.3 22.0 97 0.3 NNE 26 32 14 17 1009.8 1009.7 0.0
15/10:00pm 22.6 23.1 21.9 96 0.5 NNE 22 26 12 14 1010.1 1010.0 0.0
15/09:30pm 22.8 22.5 21.8 94 0.7 NNE 26 30 14 16 1010.2 1010.1 0.0
15/09:00pm 22.9 21.8 21.7 93 0.8 NNE 30 33 16 18 1010.0 1009.9 0.0
15/08:30pm 23.0 21.8 21.6 92 0.9 N 30 35 16 19 1009.9 1009.8 0.0
15/08:00pm 23.3 21.6 21.7 91 1.1 NNE 33 39 18 21 1009.7 1009.6 0.0
15/07:30pm 23.5 21.5 21.8 90 1.1 NNE 35 43 19 23 1009.6 1009.5 0.0
15/07:00pm 23.6 22.0 21.5 88 1.4 NNE 32 37 17 20 1009.7 1009.6 0.0
15/06:30pm 23.8 22.1 21.7 88 1.4 NNE 33 41 18 22 1009.4 1009.3 0.0
15/06:00pm 24.1 21.2 21.6 86 1.7 NE 39 46 21 25 1008.9 1008.9 0.0
15/05:30pm 24.3 21.0 21.6 85 1.8 NE 41 48 22 26 1008.8 1008.8 0.0
15/05:00pm 24.5 21.6 21.6 84 1.9 NE 39 46 21 25 1009.0 1009.0 0.0
15/04:30pm 25.0 21.8 21.7 82 2.2 NE 41 46 22 25 1009.5 1009.4 0.0
15/04:00pm 26.3 23.2 21.9 77 2.9 NE 41 48 22 26 1009.7 1009.6 0.0
15/03:30pm 26.8 24.1 22.0 75 3.2 NE 39 44 21 24 1010.2 1010.1 0.0
15/03:00pm 27.0 25.1 22.0 74 3.4 NE 35 41 19 22 1010.7 1010.6 0.0
15/02:30pm 27.6 26.0 21.9 71 3.8 NE 33 37 18 20 1011.2 1011.1 0.0
15/02:00pm 28.0 27.1 22.2 70 3.9 NE 30 35 16 19 1011.6 1011.5 0.0
15/01:30pm 28.5 27.9 22.7 71 3.9 NE 30 35 16 19 1011.9 1011.8 0.0
15/01:00pm 28.0 28.5 22.7 73 3.6 NE 24 32 13 17 1012.3 1012.2 0.0
15/12:30pm 27.1 27.7 22.1 74 3.4 NNE 22 26 12 14 1012.7 1012.6 0.0
15/12:00pm 27.4 27.8 22.4 74 3.4 NE 24 28 13 15 1013.1 1013.0 0.0
15/11:30am 27.2 28.0 22.4 75 3.2 NE 22 26 12 14 1013.4 1013.3 0.0
15/11:00am 27.2 28.6 22.8 77 3.0 NE 20 24 11 13 1013.6 1013.5 0.0
15/10:30am 26.6 27.3 22.2 77 3.0 NE 22 24 12 13 1013.8 1013.7 0.0
15/10:00am 25.9 26.8 22.0 79 2.6 NNE 20 24 11 13 1014.0 1013.9 0.0
15/09:30am 25.2 25.6 21.7 81 2.3 NNE 22 24 12 13 1014.1 1014.0 0.0
15/09:00am 24.6 25.3 21.5 83 2.1 NNE 20 22 11 12 1014.4 1014.3 0.0
15/08:30am 24.3 25.8 22.0 87 1.5 NNE 17 19 9 10 1014.6 1014.5 0.0
15/08:00am 23.6 25.3 21.7 89 1.3 NNE 15 17 8 9 1014.5 1014.4 0.0
15/07:30am 23.1 25.7 21.9 93 0.8 N 11 13 6 7 1014.3 1014.2 0.0
15/07:00am 22.6 24.7 22.4 99 0.1 NNE 15 19 8 10 1014.3 1014.2 0.0
15/06:30am 21.9 23.3 21.9 100 0.0 NNE 17 19 9 10 1013.8 1013.7 0.0
15/06:00am 21.8 23.2 21.8 100 0.0 NNE 17 19 9 10 1013.6 1013.5 0.0
15/05:30am 21.8 23.2 21.8 100 0.0 NNE 17 20 9 11 1013.5 1013.4 0.0
15/05:00am 21.9 23.0 21.9 100 0.0 NNE 19 20 10 11 1013.2 1013.1 0.0
15/04:30am 21.9 23.3 21.9 100 0.0 NNE 17 20 9 11 1013.1 1013.0 0.0
15/04:00am 21.9 24.0 21.7 99 0.1 NNE 13 15 7 8 1013.2 1013.1 0.0
15/03:30am 22.0 23.4 21.8 99 0.1 NNE 17 19 9 10 1013.1 1013.0 0.0
15/03:00am 22.1 23.4 21.6 97 0.3 NNE 17 20 9 11 1013.5 1013.4 0.0
15/02:30am 22.2 23.0 21.7 97 0.3 NNE 20 24 11 13 1013.4 1013.3 0.0
15/02:00am 22.3 22.6 21.6 96 0.5 NNE 22 24 12 13 1013.5 1013.4 0.0
15/01:30am 22.4 22.7 21.6 95 0.5 NNE 22 28 12 15 1013.7 1013.6 0.0
15/01:00am 22.4 22.3 21.4 94 0.7 NNE 24 28 13 15 1013.7 1013.6 0.0
15/12:30am 22.5 21.9 21.3 93 0.8 NE 26 30 14 16 1013.9 1013.8 0.0
15/12:00am 22.5 22.0 21.5 94 0.7 NE 26 30 14 16 1014.1 1014.0 0.0
 
Date/Time
EDT
Temp
°C
App
Temp
°C
Dew
Point
°C
Rel
Hum
%
Delta-T
°C
Wind Press
QNH
hPa
Press
MSL
hPa
Rain since
9am
mm
Dir  Spd
km/h
Gust
km/h
Spd
kts
Gust
kts
14/11:30pm 22.5 22.9 21.7 95 0.5 NNE 22 24 12 13 1014.3 1014.2 0.0
14/11:00pm 22.6 22.6 21.6 94 0.7 NNE 24 28 13 15 1014.3 1014.2 0.0
14/10:30pm 22.7 22.2 21.5 93 0.8 NNE 26 28 14 15 1014.4 1014.3 0.0
14/10:00pm 22.9 22.0 21.5 92 0.9 NNE 28 32 15 17 1014.5 1014.4 0.0
14/09:30pm 23.0 21.8 21.5 91 1.0 NNE 30 33 16 18 1014.3 1014.2 0.0
14/09:00pm 23.0 21.4 21.5 91 1.0 NE 32 39 17 21 1014.2 1014.1 0.0
14/08:30pm 23.0 20.9 21.6 92 0.9 NE 35 44 19 24 1013.9 1013.8 0.0
14/08:00pm 23.1 21.3 21.5 91 1.1 NE 33 41 18 22 1013.8 1013.7 0.0
14/07:30pm 23.3 21.1 21.4 89 1.3 NE 35 41 19 22 1013.8 1013.7 0.0
14/07:00pm 23.6 21.9 21.3 87 1.5 NE 32 37 17 20 1013.7 1013.6 0.0
14/06:30pm 23.9 22.6 21.4 86 1.6 NE 30 33 16 18 1013.9 1013.8 0.0
14/06:00pm 24.7 23.8 21.4 82 2.2 NE 28 33 15 18 1014.1 1014.0 0.0
14/05:30pm 25.3 24.4 21.4 79 2.6 NE 28 32 15 17 1014.3 1014.2 0.0
14/05:00pm 25.4 24.3 21.1 77 2.8 NE 28 33 15 18 1014.4 1014.3 0.0
14/04:30pm 26.3 25.3 21.3 74 3.3 NE 28 33 15 18 1014.7 1014.6 0.0
14/04:00pm 27.1 27.1 21.6 72 3.7 NE 24 30 13 16 1015.3 1015.2 0.0
14/03:30pm 27.4 27.8 21.7 71 3.8 NE 22 26 12 14 1015.7 1015.6 0.0
14/03:00pm 27.8 28.6 22.5 73 3.6 NE 22 26 12 14 1016.0 1015.9 0.0
14/02:30pm 27.8 29.5 23.0 75 3.3 ENE 19 20 10 11 1016.4 1016.3 0.0
14/02:00pm 26.7 28.4 22.3 77 3.0 ENE 17 20 9 11 1016.8 1016.7 0.0
14/01:30pm 26.2 27.6 21.8 77 2.9 E 17 20 9 11 1017.2 1017.1 0.0
14/01:00pm 25.5 26.5 21.8 80 2.5 E 19 20 10 11 1017.6 1017.5 0.0
14/12:30pm 25.4 27.3 22.1 82 2.2 ESE 15 20 8 11 1017.9 1017.8 0.0
14/12:00pm 25.5 28.6 22.2 82 2.2 SE 9 11 5 6 1018.5 1018.4 0.0
14/11:30am 25.2 28.3 22.1 83 2.1 SE 9 11 5 6 1018.7 1018.6 0.0
14/11:00am 25.2 28.9 22.5 85 1.8 SSE 7 9 4 5 1018.8 1018.7 0.0
14/10:30am 25.7 29.9 23.4 87 1.6 SSE 7 9 4 5 1019.0 1018.9 0.0
14/10:00am 24.6 28.3 22.5 88 1.4 SSE 7 7 4 4 1019.1 1019.0 0.0
14/09:30am 24.3 28.1 22.4 89 1.3 S 6 7 3 4 1019.2 1019.1 0.0
14/09:00am 24.4 28.3 23.0 92 0.9 S 7 9 4 5 1019.3 1019.2 0.2
14/08:30am 23.7 27.6 22.9 95 0.5 SSW 7 7 4 4 1019.4 1019.3 0.2
14/08:00am 23.3 27.6 23.3 100 0.0 S 6 7 3 4 1019.2 1019.1 0.2
14/07:30am 22.8 25.9 22.8 100 0.0 S 11 13 6 7 1019.1 1019.0 0.2
14/07:00am 22.2 24.9 22.2 100 0.0 S 11 13 6 7 1018.9 1018.8 0.2
14/06:30am 21.7 24.2 21.7 100 0.0 S 11 13 6 7 1018.8 1018.7 0.2
14/06:00am 21.7 24.6 21.7 100 0.0 S 9 11 5 6 1018.6 1018.5 0.2
14/05:30am 21.7 24.2 21.7 100 0.0 S 11 13 6 7 1018.5 1018.4 0.2
14/05:00am 21.7 24.2 21.7 100 0.0 S 11 15 6 8 1018.3 1018.2 0.2
14/04:30am 21.7 23.8 21.7 100 0.0 S 13 17 7 9 1018.3 1018.2 0.2
14/04:00am 21.6 23.6 21.6 100 0.0 S 13 17 7 9 1018.2 1018.1 0.2
14/03:30am 21.6 23.6 21.6 100 0.0 SSW 13 19 7 10 1018.3 1018.2 0.2
14/03:00am 21.6 22.9 21.6 100 0.0 S 17 20 9 11 1018.5 1018.4 0.2
14/02:30am 21.7 23.0 21.7 100 0.0 S 17 24 9 13 1019.0 1018.9 0.2
14/02:00am 21.8 23.2 21.8 100 0.0 SSW 17 22 9 12 1019.4 1019.3 0.2
14/01:30am 21.8 23.2 21.8 100 0.0 SSW 17 22 9 12 1019.7 1019.6 0.2
14/01:00am 21.7 23.0 21.7 100 0.0 SSW 17 19 9 10 1019.9 1019.8 0.2
14/12:30am 21.8 23.2 21.8 100 0.0 SSW 17 20 9 11 1020.2 1020.1 0.2
14/12:00am 21.7 23.0 21.7 100 0.0 SSW 17 19 9 10 1020.2 1020.1 0.2
 
Date/Time
EDT
Temp
°C
App
Temp
°C
Dew
Point
°C
Rel
Hum
%
Delta-T
°C
Wind Press
QNH
hPa
Press
MSL
hPa
Rain since
9am
mm
Dir  Spd
km/h
Gust
km/h
Spd
kts
Gust
kts
13/11:30pm 21.6 23.3 21.6 100 0.0 SSW 15 19 8 10 1020.3 1020.2 0.2
13/11:00pm 21.6 22.9 21.6 100 0.0 SSW 17 20 9 11 1020.4 1020.3 0.2
13/10:30pm 21.9 23.7 21.9 100 0.0 SSW 15 20 8 11 1020.6 1020.5 0.2
13/10:00pm 22.0 23.9 22.0 100 0.0 SSW 15 17 8 9 1020.7 1020.6 0.2
13/09:30pm 22.0 23.9 22.0 100 0.0 SSW 15 17 8 9 1020.5 1020.4 0.2
13/09:00pm 22.1 24.4 22.1 100 0.0 SSW 13 15 7 8 1020.4 1020.3 0.2
13/08:30pm 22.2 23.8 22.2 100 0.0 SSW 17 19 9 10 1020.3 1020.2 0.2
13/08:00pm 22.2 23.8 22.2 100 0.0 S 17 19 9 10 1020.1 1020.0 0.2
13/07:30pm 22.4 24.5 22.4 100 0.0 SSW 15 17 8 9 1020.1 1020.0 0.2
13/07:00pm 22.5 24.1 22.2 98 0.2 SSW 17 20 9 11 1019.8 1019.7 0.2
13/06:30pm 22.7 24.3 22.2 97 0.3 SSW 17 22 9 12 1019.7 1019.6 0.2
13/06:00pm 22.7 23.6 21.9 95 0.5 S 20 28 11 15 1019.5 1019.4 0.2
13/05:30pm 22.8 23.3 22.0 95 0.5 S 22 28 12 15 1019.3 1019.2 0.2
13/05:00pm 23.1 23.1 21.7 92 0.9 S 24 30 13 16 1019.3 1019.2 0.2
13/04:30pm 23.2 22.7 21.5 90 1.1 S 26 33 14 18 1019.3 1019.2 0.2
13/04:00pm 23.3 21.5 21.2 88 1.4 S 32 35 17 19 1019.3 1019.2 0.2
13/03:30pm 23.6 22.5 21.7 89 1.3 S 30 37 16 20 1019.5 1019.4 0.2
13/03:00pm 23.2 21.4 21.1 88 1.4 S 32 39 17 21 1019.8 1019.7 0.2
13/02:30pm 23.4 22.0 21.1 87 1.5 S 30 37 16 20 1019.8 1019.7 0.2
13/02:00pm 23.7 22.6 21.8 89 1.3 S 30 35 16 19 1019.9 1019.8 0.2
13/01:30pm 24.3 23.3 22.0 87 1.5 S 30 39 16 21 1020.0 1019.9 0.2
13/01:00pm 24.3 23.4 22.2 88 1.4 SSW 30 39 16 21 1020.0 1019.9 0.2

Other Formats:

Comma delimited format used in spreadsheet applications
http://www.bom.gov.au/fwo/IDN60801/IDN60801.95770.axf

JavaScript Object Notation format (JSON) in row-major order
http://www.bom.gov.au/fwo/IDN60801/IDN60801.95770.json